Terminal Aerodrome Forecast
Issued by NWS

Home | Current Version | Previous Version | Text Only | Print | Product List | Glossary On
Versions: 1 2 3 4 5 6 7 8 9 10 11 12 13 14 15
274
FTUS43 KTOP 200803 AAA
TAFFOE
TAF AMD
KFOE 200803Z 2008/2106 18008KT P6SM VCSH SCT050 BKN150
     FM201000 36015G25KT P6SM VCTS SCT050CB BKN150
     FM201400 18009KT P6SM SCT200=

USA.gov is the U.S. government's official web portal to all federal, state and local government web resources and services.